Date,TemperatureHighF,TemperatureAvgF,TemperatureLowF,DewpointHighF,DewpointAvgF,DewpointLowF,HumidityHigh,HumidityAvg,HumidityLow,PressureMaxIn,PressureMinIn,WindSpeedMaxMPH,WindSpeedAvgMPH,GustSpeedMaxMPH,PrecipitationSumIn
2013-1-1,26,15,8,-5,-10,-18,41,33,17,17.72,17.72,9,1,10,0.00
2013-1-25,43,36,32,1,-3,-6,22,19,16,22.83,22.80,6,1,8,0.00
2013-1-26,54,41,32,14,2,-6,43,20,13,22.80,22.50,10,2,14,0.00
2013-1-27,55,41,31,15,4,-5,49,23,13,22.56,22.47,13,3,13,0.00
2013-1-28,49,34,24,12,1,-8,56,27,14,22.53,22.35,17,4,17,0.00
2013-1-29,24,18,11,8,-6,-19,49,36,17,22.56,22.35,20,6,22,0.00
2013-1-30,32,20,4,-4,-10,-15,45,28,16,22.62,22.50,15,3,15,0.00
2013-1-31,38,29,21,-4,-9,-17,27,18,16,22.80,22.62,15,3,15,0.00
2013-2-1,40,30,23,-2,-8,-13,24,18,16,22.89,22.74,30,5,30,0.00
2013-2-2,48,31,20,1,-6,-14,35,20,14,22.97,22.86,12,2,12,0.00
2013-2-3,52,35,23,4,-6,-13,24,17,13,22.92,22.65,8,1,9,0.00
2013-2-4,47,33,24,1,-8,-15,17,16,14,22.71,22.62,9,2,11,0.00
2013-2-5,47,35,25,1,-7,-15,18,16,14,22.77,22.65,13,3,13,0.00
2013-2-6,53,38,27,21,3,-9,71,26,13,22.74,22.59,15,4,15,0.00
2013-2-7,38,28,20,16,4,-3,64,39,19,22.83,22.74,14,3,14,0.08
2013-2-8,43,30,20,0,-5,-11,37,22,15,22.77,22.47,13,3,14,0.00
2013-2-9,31,24,18,16,1,-8,73,39,20,22.47,22.27,18,7,19,0.00
2013-2-10,28,20,15,11,-3,-13,69,39,18,22.65,22.30,15,4,16,0.00
2013-2-11,24,16,12,-3,-6,-8,44,37,24,22.65,22.59,13,3,13,0.00
2013-2-12,31,19,9,-5,-13,-19,42,26,15,22.68,22.65,10,2,11,0.00
2013-2-13,42,27,17,-1,-12,-19,19,17,15,22.71,22.62,15,2,15,0.00
2013-2-14,37,22,13,7,-7,-15,47,29,16,22.89,22.68,28,4,28,0.00
2013-2-15,32,19,9,-2,-8,-16,46,30,18,22.89,22.83,17,3,23,0.00
2013-2-16,48,33,14,1,-6,-15,46,19,14,22.89,22.71,11,3,13,0.00
2013-2-17,52,37,22,4,-6,-13,30,16,13,22.71,22.41,17,5,20,0.00
2013-2-18,34,23,16,5,-8,-20,54,28,15,22.71,22.50,15,4,17,0.00
2013-2-19,38,23,11,-4,-13,-23,39,19,16,22.71,22.47,10,3,11,0.00
2013-2-20,35,24,16,13,-2,-16,69,34,17,22.47,22.35,18,4,21,0.00
2013-2-21,19,14,10,2,-3,-6,54,47,34,22.53,22.32,20,8,23,0.00
2013-2-22,34,19,10,3,-2,-7,50,40,18,22.59,22.50,8,2,10,0.00
2013-2-23,41,26,13,5,-9,-21,44,22,16,22.56,22.35,15,4,18,0.04
2013-2-24,24,20,14,16,8,2,76,61,45,22.68,22.41,26,10,26,0.04
2013-2-25,31,19,8,16,0,-15,67,46,19,22.68,22.53,13,4,15,0.00
2013-2-26,30,21,12,9,-3,-14,64,39,18,22.74,22.47,28,8,28,0.00
2013-2-27,35,19,10,17,-4,-19,71,41,15,22.83,22.74,21,4,24,0.00
2013-2-28,36,23,11,-5,-14,-23,22,18,15,22.89,22.80,17,4,20,0.00
2013-3-1,40,29,19,-2,-8,-14,26,19,16,22.97,22.86,13,4,14,0.00
2013-3-2,53,38,25,4,-3,-11,26,17,13,22.97,22.80,8,1,8,0.00
2013-3-3,58,43,33,6,-1,-6,18,15,12,22.80,22.50,17,4,17,0.00
2013-3-4,38,25,10,18,2,-6,75,41,16,22.83,22.47,19,5,22,0.00
2013-3-5,36,20,8,4,-1,-6,56,42,17,22.89,22.80,12,3,12,0.00
2013-3-6,57,40,19,5,-2,-11,48,17,12,22.80,22.62,11,3,13,0.00
2013-3-7,57,44,34,5,-1,-6,17,15,12,22.74,22.65,13,3,17,0.00
2013-3-8,52,38,29,20,1,-7,67,24,13,22.71,22.44,10,3,12,0.00
2013-3-9,30,25,18,23,17,3,81,72,53,22.71,22.38,39,14,39,0.00
2013-3-10,32,23,13,3,-6,-13,53,30,18,22.77,22.71,24,8,24,0.00
2013-3-11,49,35,25,18,-1,-12,69,25,14,22.77,22.65,13,3,13,0.00
2013-3-12,31,26,22,14,9,6,66,48,34,22.92,22.77,10,3,11,0.00
2013-3-13,58,41,25,14,1,-7,59,22,12,22.97,22.89,10,2,10,0.00
2013-3-14,62,46,35,8,0,-5,17,15,11,23.03,22.92,10,2,10,0.00
2013-3-15,67,52,40,9,3,-2,16,13,10,22.92,22.71,16,3,16,0.00
2013-3-16,50,41,32,18,4,-4,51,24,14,22.77,22.59,14,3,15,0.00
2013-3-17,53,37,26,16,3,-12,51,27,13,22.62,22.35,17,4,22,0.00
2013-3-18,45,31,19,0,-8,-16,28,18,15,22.68,22.56,17,3,22,0.00
2013-3-19,46,33,23,1,-8,-15,20,16,14,22.94,22.65,14,4,15,0.00
2013-3-20,45,31,17,0,-6,-14,34,21,15,22.94,22.53,13,4,14,0.00
2013-3-21,56,39,26,16,1,-6,51,23,12,22.56,22.35,24,4,28,0.00
2013-3-22,41,29,20,18,5,-7,78,40,16,22.56,22.35,24,6,26,0.00
2013-3-23,20,12,5,6,-2,-9,55,52,49,22.77,22.53,29,10,30,0.00
2013-3-24,25,12,4,3,-8,-14,51,41,22,22.77,22.68,14,4,17,0.00
2013-3-25,34,17,4,-5,-11,-17,39,29,17,22.83,22.77,10,2,10,0.00
2013-3-26,51,31,10,9,-4,-13,41,23,14,22.83,22.65,12,3,12,0.00
2013-3-27,53,37,24,10,2,-5,40,24,13,22.83,22.68,13,3,13,0.00
2013-3-28,57,43,28,11,4,-4,48,23,12,22.86,22.80,13,3,13,0.00
2013-3-29,60,45,34,7,2,-4,30,17,12,22.89,22.80,20,3,24,0.00
2013-3-30,62,45,35,24,5,-5,62,22,11,22.92,22.77,21,5,23,0.00
2013-3-31,64,43,27,25,10,-4,70,35,11,22.92,22.71,13,2,14,0.00
2013-4-1,52,38,28,9,2,-6,40,23,13,22.86,22.74,14,4,14,0.00
2013-4-2,36,31,27,26,16,9,80,55,34,22.80,22.74,11,2,13,0.00
2013-4-3,51,38,30,26,11,-5,81,39,14,22.89,22.77,20,3,24,0.00
2013-4-4,63,47,33,8,1,-6,30,16,11,22.89,22.80,13,3,13,0.00
2013-4-5,68,52,38,10,3,-4,16,13,10,22.80,22.59,13,4,19,0.00
2013-4-6,60,46,32,7,0,-6,19,15,12,22.71,22.65,15,3,15,0.00
2013-4-7,58,46,33,11,3,-5,38,18,12,22.68,22.53,22,4,24,0.00
2013-4-8,64,44,22,25,5,-6,82,26,11,22.56,22.30,33,6,33,0.00
2013-4-9,22,10,3,13,-5,-12,68,51,48,22.71,22.47,22,11,22,0.00
2013-4-10,26,12,-1,14,-2,-16,64,52,48,22.68,22.59,15,5,17,0.00
2013-4-11,49,32,13,29,10,-2,83,45,14,22.65,22.47,20,4,20,0.00
2013-4-12,53,36,28,16,10,0,56,37,13,22.71,22.62,24,2,24,0.00
2013-4-13,64,44,28,24,11,0,73,34,11,22.71,22.27,17,5,20,0.00
2013-4-14,50,39,30,27,5,-11,78,30,14,22.53,22.30,17,4,22,0.08
2013-4-15,45,29,22,11,0,-13,59,32,15,22.65,22.41,23,7,25,0.00
2013-4-16,42,28,22,18,6,-1,69,41,18,22.65,22.50,17,5,17,0.00
2013-4-17,34,22,11,19,8,-2,75,57,28,22.71,22.56,25,8,25,0.00
2013-4-18,32,18,8,18,-1,-16,70,44,18,22.80,22.68,17,5,17,0.00
2013-4-19,49,34,16,2,-6,-16,23,17,14,22.80,22.71,8,2,11,0.04
2013-4-20,53,39,29,16,0,-9,48,20,13,22.77,22.65,13,2,15,0.00
2013-4-21,58,43,30,17,3,-4,52,21,12,22.80,22.74,15,2,15,0.00
2013-4-22,54,30,16,20,5,-3,71,38,13,22.86,22.68,31,7,33,0.04
2013-4-23,34,22,14,2,-3,-12,53,35,18,22.86,22.74,11,3,14,0.00
2013-4-24,46,31,16,2,-3,-9,47,25,15,22.92,22.80,13,2,15,0.08
2013-4-25,58,42,25,6,-2,-11,23,16,12,22.89,22.68,13,3,14,0.00
2013-4-26,59,46,38,7,0,-5,16,15,12,22.97,22.77,17,5,18,0.00
2013-4-27,66,50,37,9,2,-5,19,14,10,22.97,22.86,17,4,21,0.00
2013-4-28,72,56,40,11,4,-2,16,13,9,22.86,22.71,15,2,18,0.00
2013-4-29,76,57,40,11,6,-1,23,13,8,22.77,22.56,13,3,14,0.00
2013-4-30,67,50,34,19,8,-1,52,20,10,22.74,22.53,21,6,23,0.00
2013-5-1,35,27,18,22,12,4,74,53,30,23.12,22.74,22,8,22,0.00
2013-5-2,39,27,15,8,-1,-9,61,34,16,23.21,23.06,11,3,13,0.08
2013-5-3,54,48,37,5,2,-5,16,14,13,22.86,22.83,15,4,16,0.00
2013-5-4,59,55,51,6,4,2,14,13,12,22.86,22.83,8,4,10,0.00
2013-5-7,64,54,40,21,8,0,47,18,10,22.80,22.71,15,4,15,0.00
2013-5-8,52,41,37,30,21,13,74,47,21,22.83,22.74,17,3,17,0.24
2013-5-9,50,39,33,32,25,14,77,58,27,22.94,22.83,17,3,20,0.39
2013-5-10,57,44,33,25,13,2,68,34,12,23.03,22.92,31,4,31,0.00
2013-5-11,62,48,38,18,10,0,41,23,11,23.09,23.00,18,4,19,0.00
2013-5-12,70,56,42,11,6,0,26,14,9,23.00,22.94,16,3,17,0.00
2013-5-13,77,63,48,11,7,1,14,11,8,23.00,22.92,13,3,15,0.00
2013-5-14,77,60,52,26,9,2,32,14,8,22.92,22.80,13,4,15,0.00
2013-6-4,75,62,45,42,17,7,84,23,8,22.94,22.80,26,5,28,0.00
2013-6-5,57,47,40,40,31,20,89,60,25,22.94,22.89,23,5,26,0.04
2013-6-6,74,57,40,36,18,6,68,31,8,22.94,22.86,14,3,15,0.00
2013-6-7,74,60,47,16,10,4,28,15,8,22.92,22.74,13,2,13,0.00
2013-6-8,70,61,51,14,8,2,16,12,9,22.86,22.68,24,6,24,0.00
2013-6-9,85,64,44,16,10,2,29,13,6,22.89,22.83,13,3,15,0.00
2013-6-10,89,72,56,20,9,4,12,9,5,22.89,22.80,15,2,15,0.00
2013-6-11,92,76,64,20,11,-5,11,9,6,22.86,22.74,18,4,20,0.00
2013-6-12,86,70,55,12,9,4,13,9,6,22.97,22.86,19,3,19,0.00
2013-6-13,86,68,54,28,13,4,35,13,6,22.94,22.83,20,4,20,0.00
2013-6-14,84,67,55,25,11,7,28,12,6,22.89,22.80,12,3,15,0.00
2013-6-15,78,61,49,25,13,6,38,17,8,22.92,22.83,17,5,18,0.00
2013-6-16,78,59,48,26,13,4,40,18,8,22.97,22.89,27,4,27,0.00
2013-6-17,71,58,48,26,10,2,32,16,9,23.00,22.92,18,3,18,0.04
2013-6-18,79,59,47,32,21,8,46,26,8,22.97,22.80,13,3,15,0.08
2013-6-19,84,65,50,38,21,7,62,26,6,22.86,22.65,16,5,17,0.00
2013-6-20,87,68,56,12,8,4,12,10,6,22.80,22.71,13,4,15,0.00
2013-6-21,91,71,53,20,9,4,13,9,5,22.80,22.71,13,3,15,0.00
2013-6-22,83,66,51,22,11,4,29,13,6,22.80,22.68,13,3,15,0.00
2013-6-23,82,64,49,24,12,4,37,15,7,22.86,22.74,17,4,19,0.00
2013-6-24,83,66,50,25,15,8,35,16,6,22.80,22.68,13,3,14,0.00
2013-6-25,88,71,58,20,9,6,12,9,6,22.92,22.74,14,3,18,0.00
2013-6-26,90,72,55,20,10,4,13,9,6,22.97,22.92,15,3,15,0.00
2013-6-27,91,75,61,20,11,6,11,9,6,23.12,22.97,17,4,17,0.00
2013-6-28,90,72,59,34,16,7,38,13,6,23.15,23.00,26,4,26,0.04
2013-6-29,79,65,55,35,18,6,46,19,8,23.15,22.97,21,4,21,0.00
2013-6-30,75,61,53,36,24,7,52,26,11,23.03,23.00,13,2,15,0.08
2013-7-1,74,58,49,47,32,14,74,41,11,23.09,23.03,10,2,10,0.00
2013-7-2,75,61,48,44,22,8,74,31,8,23.09,22.97,17,3,18,0.00
2013-7-3,81,68,51,22,12,7,30,13,7,23.00,22.80,19,4,20,0.00
2013-7-4,84,68,55,13,10,5,17,11,6,22.89,22.83,20,4,22,0.00
2013-7-5,85,70,60,29,18,7,30,16,6,22.83,22.77,17,3,17,0.00
2013-7-6,85,66,57,37,19,8,40,19,6,22.92,22.80,25,3,25,0.16
2013-7-7,84,65,55,40,23,8,42,22,6,22.97,22.89,20,2,20,0.04
2013-7-8,87,71,58,28,15,7,31,14,6,23.00,22.92,15,4,22,0.00
2013-7-9,86,72,60,12,9,6,12,9,6,23.06,22.97,19,2,21,0.00
2013-7-10,82,68,58,33,16,6,38,15,7,23.06,22.94,14,3,17,0.00
2013-7-11,86,68,53,45,26,9,71,28,7,23.00,22.83,17,4,17,0.00
2013-7-12,84,70,63,26,14,7,24,12,6,22.94,22.86,18,3,23,0.00
2013-7-13,86,66,57,43,28,9,57,27,6,23.00,22.92,18,3,22,0.08
2013-7-14,72,64,55,40,26,13,48,26,11,23.03,22.94,20,6,23,0.04
2013-7-15,68,59,52,29,22,16,35,24,15,23.00,22.97,12,3,12,0.00
2013-7-16,73,59,46,38,25,8,68,32,9,23.06,22.97,17,4,17,0.08
2013-7-17,78,64,53,44,26,8,69,31,8,23.06,23.00,15,5,16,0.00
2013-7-18,84,67,53,34,20,9,48,20,6,23.03,22.94,15,5,17,0.00
2013-7-19,78,65,55,33,24,14,41,24,10,23.03,22.94,17,4,18,0.00
2013-7-20,82,67,55,48,27,8,69,31,7,22.97,22.83,24,4,25,0.00
2013-7-21,86,70,54,33,17,7,43,18,6,22.89,22.83,17,4,21,0.00
2013-7-22,89,73,61,20,10,1,11,9,6,22.92,22.83,15,3,16,0.00
2013-7-23,89,74,63,20,10,7,15,9,6,23.00,22.89,14,3,14,0.00
2013-7-24,68,63,56,46,38,17,59,41,18,23.06,22.97,15,4,15,0.04
2013-8-2,87,72,58,27,14,8,25,13,6,22.97,22.89,12,4,16,0.00
2013-8-3,77,66,57,38,23,10,43,22,9,23.06,22.94,10,3,12,0.04
2013-9-12,63,58,54,49,44,35,83,63,37,23.06,22.97,11,5,13,0.20
2013-10-10,59,49,40,17,6,-2,34,18,12,22.62,22.41,22,5,22,0.00
2013-10-11,57,44,38,22,6,-4,50,24,12,22.83,22.38,22,4,25,0.00
2013-10-12,52,42,36,27,16,4,62,37,16,22.92,22.80,13,4,15,0.00
2013-10-13,56,43,30,33,17,7,69,39,15,22.89,22.71,12,4,15,0.00
2013-10-14,44,44,43,34,31,23,69,60,43,22.74,22.68,9,4,10,0.00